sensor_id;sensor_type;location;lat;lon;timestamp;pressure;altitude;pressure_sealevel;temperature;humidity
28628;BME280;15815;46.760;19.604;2023-04-29T00:01:37;100223.84;;;12.75;48.68
28628;BME280;15815;46.760;19.604;2023-04-29T00:04:03;100241.94;;;12.78;48.88
28628;BME280;15815;46.760;19.604;2023-04-29T00:06:28;100247.50;;;12.85;48.41
28628;BME280;15815;46.760;19.604;2023-04-29T00:08:54;100265.56;;;12.91;49.31
28628;BME280;15815;46.760;19.604;2023-04-29T00:11:19;100262.28;;;12.96;49.44
28628;BME280;15815;46.760;19.604;2023-04-29T00:13:45;100229.44;;;12.79;49.46
28628;BME280;15815;46.760;19.604;2023-04-29T00:16:10;100250.31;;;12.85;50.00
28628;BME280;15815;46.760;19.604;2023-04-29T00:18:36;100222.28;;;12.71;50.68
28628;BME280;15815;46.760;19.604;2023-04-29T00:21:02;100229.16;;;12.69;50.80
28628;BME280;15815;46.760;19.604;2023-04-29T00:23:28;100241.22;;;12.70;51.34
28628;BME280;15815;46.760;19.604;2023-04-29T00:25:53;100222.06;;;12.54;51.40
28628;BME280;15815;46.760;19.604;2023-04-29T00:28:19;100245.69;;;12.67;51.56
28628;BME280;15815;46.760;19.604;2023-04-29T00:30:44;100237.72;;;12.62;51.64
28628;BME280;15815;46.760;19.604;2023-04-29T00:33:10;100212.19;;;12.39;52.11
28628;BME280;15815;46.760;19.604;2023-04-29T00:35:38;100258.19;;;12.66;52.63
28628;BME280;15815;46.760;19.604;2023-04-29T00:38:05;100248.25;;;12.55;52.32
28628;BME280;15815;46.760;19.604;2023-04-29T00:40:30;100258.66;;;12.61;52.38
28628;BME280;15815;46.760;19.604;2023-04-29T00:42:56;100234.69;;;12.43;52.19
28628;BME280;15815;46.760;19.604;2023-04-29T00:45:21;100238.28;;;12.47;52.93
28628;BME280;15815;46.760;19.604;2023-04-29T00:47:47;100225.91;;;12.37;52.46
28628;BME280;15815;46.760;19.604;2023-04-29T00:50:13;100244.66;;;12.51;52.47
28628;BME280;15815;46.760;19.604;2023-04-29T00:52:38;100207.50;;;12.25;52.71
28628;BME280;15815;46.760;19.604;2023-04-29T00:55:06;100222.72;;;12.35;52.59
28628;BME280;15815;46.760;19.604;2023-04-29T00:57:32;100243.88;;;12.50;52.91
28628;BME280;15815;46.760;19.604;2023-04-29T00:59:59;100217.06;;;12.35;52.90
28628;BME280;15815;46.760;19.604;2023-04-29T01:02:25;100200.59;;;12.30;53.38
28628;BME280;15815;46.760;19.604;2023-04-29T01:04:54;100204.63;;;12.29;54.00
28628;BME280;15815;46.760;19.604;2023-04-29T01:07:30;100223.47;;;12.39;53.50
28628;BME280;15815;46.760;19.604;2023-04-29T01:10:21;100228.72;;;12.37;54.26
28628;BME280;15815;46.760;19.604;2023-04-29T01:13:16;100214.69;;;12.30;53.93
28628;BME280;15815;46.760;19.604;2023-04-29T01:18:25;100231.91;;;12.39;53.49
28628;BME280;15815;46.760;19.604;2023-04-29T01:20:52;100211.56;;;12.21;53.20
28628;BME280;15815;46.760;19.604;2023-04-29T01:23:17;100192.34;;;12.12;53.24
28628;BME280;15815;46.760;19.604;2023-04-29T01:25:44;100204.78;;;12.15;53.00
28628;BME280;15815;46.760;19.604;2023-04-29T01:34:10;100241.59;;;12.38;52.91
28628;BME280;15815;46.760;19.604;2023-04-29T01:39:45;100212.03;;;12.16;53.58
28628;BME280;15815;46.760;19.604;2023-04-29T01:42:23;100222.75;;;12.28;53.64
28628;BME280;15815;46.760;19.604;2023-04-29T01:44:56;100224.75;;;12.31;53.69
28628;BME280;15815;46.760;19.604;2023-04-29T01:47:26;100212.41;;;12.18;53.48
28628;BME280;15815;46.760;19.604;2023-04-29T01:49:53;100207.56;;;12.18;53.29
28628;BME280;15815;46.760;19.604;2023-04-29T01:52:19;100202.03;;;12.11;54.10
28628;BME280;15815;46.760;19.604;2023-04-29T01:54:45;100209.28;;;12.09;53.83
28628;BME280;15815;46.760;19.604;2023-04-29T01:57:10;100211.66;;;12.14;53.47
28628;BME280;15815;46.760;19.604;2023-04-29T01:59:37;100222.81;;;12.24;53.85
28628;BME280;15815;46.760;19.604;2023-04-29T02:02:02;100227.63;;;12.24;54.68
28628;BME280;15815;46.760;19.604;2023-04-29T02:04:28;100207.69;;;12.07;54.71
28628;BME280;15815;46.760;19.604;2023-04-29T02:06:54;100208.44;;;12.12;54.24
28628;BME280;15815;46.760;19.604;2023-04-29T02:09:19;100205.25;;;12.10;54.50
28628;BME280;15815;46.760;19.604;2023-04-29T02:11:47;100233.22;;;12.27;54.87
28628;BME280;15815;46.760;19.604;2023-04-29T02:14:12;100222.88;;;12.17;55.57
28628;BME280;15815;46.760;19.604;2023-04-29T02:16:39;100202.88;;;12.04;55.53
28628;BME280;15815;46.760;19.604;2023-04-29T02:19:05;100216.56;;;12.06;56.45
28628;BME280;15815;46.760;19.604;2023-04-29T02:21:31;100228.59;;;12.10;55.97
28628;BME280;15815;46.760;19.604;2023-04-29T02:23:57;100235.78;;;12.15;56.10
28628;BME280;15815;46.760;19.604;2023-04-29T02:26:24;100223.00;;;12.06;56.08
28628;BME280;15815;46.760;19.604;2023-04-29T02:28:50;100202.88;;;12.04;56.50
28628;BME280;15815;46.760;19.604;2023-04-29T02:31:15;100191.69;;;11.97;57.24
28628;BME280;15815;46.760;19.604;2023-04-29T02:33:41;100207.75;;;12.00;57.07
28628;BME280;15815;46.760;19.604;2023-04-29T02:36:06;100210.13;;;12.05;57.45
28628;BME280;15815;46.760;19.604;2023-04-29T02:38:32;100201.63;;;12.09;56.96
28628;BME280;15815;46.760;19.604;2023-04-29T02:40:57;100190.06;;;11.96;57.38
28628;BME280;15815;46.760;19.604;2023-04-29T02:43:23;100191.72;;;11.94;57.27
28628;BME280;15815;46.760;19.604;2023-04-29T02:45:48;100214.97;;;12.01;57.19
28628;BME280;15815;46.760;19.604;2023-04-29T02:48:14;100206.63;;;11.91;57.49
28628;BME280;15815;46.760;19.604;2023-04-29T02:50:40;100203.69;;;12.01;56.90
28628;BME280;15815;46.760;19.604;2023-04-29T02:53:06;100192.47;;;11.98;56.79
28628;BME280;15815;46.760;19.604;2023-04-29T02:55:35;100219.66;;;12.19;57.43
28628;BME280;15815;46.760;19.604;2023-04-29T02:58:00;100188.03;;;12.00;58.14
28628;BME280;15815;46.760;19.604;2023-04-29T03:00:26;100218.56;;;12.05;57.53
28628;BME280;15815;46.760;19.604;2023-04-29T03:02:52;100178.53;;;11.84;58.44
28628;BME280;15815;46.760;19.604;2023-04-29T03:05:19;100166.09;;;11.81;58.66
28628;BME280;15815;46.760;19.604;2023-04-29T03:07:45;100203.75;;;11.98;58.93
28628;BME280;15815;46.760;19.604;2023-04-29T03:10:10;100202.94;;;11.97;58.75
28628;BME280;15815;46.760;19.604;2023-04-29T03:12:37;100217.03;;;11.97;58.63
28628;BME280;15815;46.760;19.604;2023-04-29T03:15:03;100190.94;;;11.90;57.83
28628;BME280;15815;46.760;19.604;2023-04-29T03:17:28;100170.09;;;11.84;56.87
28628;BME280;15815;46.760;19.604;2023-04-29T03:19:55;100192.50;;;11.94;57.15
28628;BME280;15815;46.760;19.604;2023-04-29T03:22:20;100196.53;;;11.93;56.74
28628;BME280;15815;46.760;19.604;2023-04-29T03:24:46;100198.91;;;11.98;57.44
28628;BME280;15815;46.760;19.604;2023-04-29T03:27:11;100211.78;;;11.99;57.38
28628;BME280;15815;46.760;19.604;2023-04-29T03:29:37;100192.50;;;11.94;57.79
28628;BME280;15815;46.760;19.604;2023-04-29T03:32:03;100210.13;;;12.05;56.96
28628;BME280;15815;46.760;19.604;2023-04-29T03:34:28;100203.34;;;11.96;58.01
28628;BME280;15815;46.760;19.604;2023-04-29T03:36:54;100213.34;;;12.04;57.36
28628;BME280;15815;46.760;19.604;2023-04-29T03:39:19;100201.41;;;11.89;57.37
28628;BME280;15815;46.760;19.604;2023-04-29T03:41:46;100195.00;;;11.89;57.44
28628;BME280;15815;46.760;19.604;2023-04-29T03:44:12;100195.72;;;11.96;57.84
28628;BME280;15815;46.760;19.604;2023-04-29T03:46:38;100192.50;;;11.94;58.56
28628;BME280;15815;46.760;19.604;2023-04-29T03:49:03;100191.75;;;11.90;58.31
28628;BME280;15815;46.760;19.604;2023-04-29T03:51:33;100197.28;;;12.01;57.92
28628;BME280;15815;46.760;19.604;2023-04-29T03:53:58;100181.69;;;11.89;57.95
28628;BME280;15815;46.760;19.604;2023-04-29T03:56:24;100198.91;;;11.98;57.48
28628;BME280;15815;46.760;19.604;2023-04-29T03:58:52;100198.16;;;11.94;57.40
28628;BME280;15815;46.760;19.604;2023-04-29T04:01:18;100203.75;;;11.98;57.15
28628;BME280;15815;46.760;19.604;2023-04-29T04:03:44;100222.09;;;12.17;57.05
28628;BME280;15815;46.760;19.604;2023-04-29T04:06:11;100214.88;;;12.12;57.05
28628;BME280;15815;46.760;19.604;2023-04-29T04:08:36;100196.84;;;12.06;57.01
28628;BME280;15815;46.760;19.604;2023-04-29T04:11:02;100208.50;;;12.04;57.35
28628;BME280;15815;46.760;19.604;2023-04-29T04:13:28;100219.34;;;12.10;57.73
28628;BME280;15815;46.760;19.604;2023-04-29T04:15:54;100228.13;;;12.15;58.57
28628;BME280;15815;46.760;19.604;2023-04-29T04:18:19;100228.47;;;12.21;58.62
28628;BME280;15815;46.760;19.604;2023-04-29T04:20:45;100216.16;;;12.07;58.61
28628;BME280;15815;46.760;19.604;2023-04-29T04:23:10;100218.13;;;12.11;58.55
28628;BME280;15815;46.760;19.604;2023-04-29T04:25:36;100212.50;;;12.11;57.86
28628;BME280;15815;46.760;19.604;2023-04-29T04:28:01;100224.50;;;12.15;57.91
28628;BME280;15815;46.760;19.604;2023-04-29T04:30:27;100199.72;;;11.99;58.08
28628;BME280;15815;46.760;19.604;2023-04-29T04:32:52;100227.34;;;12.15;58.48
28628;BME280;15815;46.760;19.604;2023-04-29T04:35:19;100206.13;;;11.99;57.99
28628;BME280;15815;46.760;19.604;2023-04-29T04:37:45;100167.59;;;11.93;58.48
28628;BME280;15815;46.760;19.604;2023-04-29T04:40:11;100186.81;;;12.01;57.81
28628;BME280;15815;46.760;19.604;2023-04-29T04:42:36;100187.63;;;11.98;58.55
28628;BME280;15815;46.760;19.604;2023-04-29T04:45:02;100192.38;;;12.09;58.12
28628;BME280;15815;46.760;19.604;2023-04-29T04:47:28;100196.03;;;12.05;58.84
28628;BME280;15815;46.760;19.604;2023-04-29T04:49:53;100207.69;;;12.07;58.83
28628;BME280;15815;46.760;19.604;2023-04-29T04:52:20;100211.72;;;12.06;58.86
28628;BME280;15815;46.760;19.604;2023-04-29T04:54:46;100203.69;;;12.01;59.06
28628;BME280;15815;46.760;19.604;2023-04-29T04:57:11;100199.75;;;11.95;58.46
28628;BME280;15815;46.760;19.604;2023-04-29T04:59:37;100199.44;;;11.86;59.48
28628;BME280;15815;46.760;19.604;2023-04-29T05:02:02;100201.41;;;11.89;58.55
28628;BME280;15815;46.760;19.604;2023-04-29T05:04:28;100203.34;;;11.96;58.89
28628;BME280;15815;46.760;19.604;2023-04-29T05:06:54;100203.78;;;11.94;59.02
28628;BME280;15815;46.760;19.604;2023-04-29T05:09:19;100212.59;;;11.96;59.42
28628;BME280;15815;46.760;19.604;2023-04-29T05:11:45;100178.22;;;11.71;59.18
28628;BME280;15815;46.760;19.604;2023-04-29T05:14:10;100199.88;;;11.81;59.13
28628;BME280;15815;46.760;19.604;2023-04-29T05:16:36;100226.34;;;11.91;59.08
28628;BME280;15815;46.760;19.604;2023-04-29T05:19:02;100195.09;;;11.71;59.21
28628;BME280;15815;46.760;19.604;2023-04-29T05:21:27;100198.34;;;11.69;60.18
28628;BME280;15815;46.760;19.604;2023-04-29T05:23:53;100188.75;;;11.63;59.97
28628;BME280;15815;46.760;19.604;2023-04-29T05:26:18;100209.16;;;11.78;59.97
28628;BME280;15815;46.760;19.604;2023-04-29T05:28:44;100177.50;;;11.60;59.25
28628;BME280;15815;46.760;19.604;2023-04-29T05:31:09;100183.13;;;11.60;58.87
28628;BME280;15815;46.760;19.604;2023-04-29T05:33:35;100174.66;;;11.63;58.63
28628;BME280;15815;46.760;19.604;2023-04-29T05:36:03;100169.44;;;11.62;57.79
28628;BME280;15815;46.760;19.604;2023-04-29T05:38:28;100170.66;;;11.61;57.65
28628;BME280;15815;46.760;19.604;2023-04-29T05:40:55;100179.47;;;11.66;58.04
28628;BME280;15815;46.760;19.604;2023-04-29T05:43:20;100215.94;;;11.84;57.94
28628;BME280;15815;46.760;19.604;2023-04-29T05:45:46;100197.09;;;11.74;58.00
28628;BME280;15815;46.760;19.604;2023-04-29T05:48:12;100211.91;;;11.85;57.09
28628;BME280;15815;46.760;19.604;2023-04-29T05:50:37;100216.72;;;11.88;56.70
28628;BME280;15815;46.760;19.604;2023-04-29T05:53:03;100235.91;;;12.00;56.33
28628;BME280;15815;46.760;19.604;2023-04-29T05:55:29;100215.03;;;11.94;56.02
28628;BME280;15815;46.760;19.604;2023-04-29T05:57:55;100238.25;;;12.09;55.50
28628;BME280;15815;46.760;19.604;2023-04-29T06:00:20;100219.47;;;11.95;55.96
28628;BME280;15815;46.760;19.604;2023-04-29T06:02:46;100218.56;;;12.05;55.02
28628;BME280;15815;46.760;19.604;2023-04-29T06:05:11;100226.50;;;12.18;55.49
28628;BME280;15815;46.760;19.604;2023-04-29T06:07:38;100216.56;;;12.02;56.04
28628;BME280;15815;46.760;19.604;2023-04-29T06:10:04;100215.66;;;12.16;55.91
28628;BME280;15815;46.760;19.604;2023-04-29T06:12:30;100241.97;;;12.40;55.56
28628;BME280;15815;46.760;19.604;2023-04-29T06:14:56;100235.03;;;12.48;56.07
28628;BME280;15815;46.760;19.604;2023-04-29T06:17:22;100228.25;;;12.42;55.55
28628;BME280;15815;46.760;19.604;2023-04-29T06:19:48;100223.41;;;12.43;55.73
28628;BME280;15815;46.760;19.604;2023-04-29T06:22:16;100224.59;;;12.45;55.35
28628;BME280;15815;46.760;19.604;2023-04-29T06:24:42;100218.59;;;12.43;55.60
28628;BME280;15815;46.760;19.604;2023-04-29T06:27:07;100219.38;;;12.44;55.62
28628;BME280;15815;46.760;19.604;2023-04-29T06:29:33;100214.84;;;12.53;54.71
28628;BME280;15815;46.760;19.604;2023-04-29T06:31:59;100212.63;;;12.72;55.20
28628;BME280;15815;46.760;19.604;2023-04-29T06:34:24;100222.41;;;12.94;54.40
28628;BME280;15815;46.760;19.604;2023-04-29T06:36:50;100233.88;;;13.10;55.13
28628;BME280;15815;46.760;19.604;2023-04-29T06:39:15;100212.25;;;13.00;54.29
28628;BME280;15815;46.760;19.604;2023-04-29T06:41:41;100222.03;;;13.22;54.73
28628;BME280;15815;46.760;19.604;2023-04-29T06:44:06;100224.28;;;13.35;54.58
28628;BME280;15815;46.760;19.604;2023-04-29T06:46:32;100223.75;;;13.70;54.32
28628;BME280;15815;46.760;19.604;2023-04-29T06:48:57;100212.56;;;13.86;53.24
28628;BME280;15815;46.760;19.604;2023-04-29T06:51:23;100226.56;;;14.17;51.90
28628;BME280;15815;46.760;19.604;2023-04-29T06:53:51;100231.75;;;14.42;51.20
28628;BME280;15815;46.760;19.604;2023-04-29T06:56:17;100207.69;;;14.34;50.55
28628;BME280;15815;46.760;19.604;2023-04-29T06:58:44;100227.59;;;14.90;51.57
28628;BME280;15815;46.760;19.604;2023-04-29T07:01:09;100215.16;;;15.03;51.16
28628;BME280;15815;46.760;19.604;2023-04-29T07:03:35;100218.75;;;15.07;49.25
28628;BME280;15815;46.760;19.604;2023-04-29T07:06:01;100193.72;;;15.22;48.75
28628;BME280;15815;46.760;19.604;2023-04-29T07:08:26;100222.19;;;15.51;47.78
28628;BME280;15815;46.760;19.604;2023-04-29T07:10:56;100236.59;;;15.93;45.06
28628;BME280;15815;46.760;19.604;2023-04-29T07:13:22;100225.38;;;16.92;46.17
28628;BME280;15815;46.760;19.604;2023-04-29T07:15:48;100232.16;;;17.49;44.31
28628;BME280;15815;46.760;19.604;2023-04-29T07:18:13;100221.72;;;17.97;43.26
28628;BME280;15815;46.760;19.604;2023-04-29T07:20:39;100209.13;;;17.85;43.14
28628;BME280;15815;46.760;19.604;2023-04-29T07:23:05;100216.69;;;18.01;41.55
28628;BME280;15815;46.760;19.604;2023-04-29T07:25:30;100214.97;;;18.04;40.88
28628;BME280;15815;46.760;19.604;2023-04-29T07:27:56;100220.50;;;18.54;40.16
28628;BME280;15815;46.760;19.604;2023-04-29T07:30:22;100212.78;;;18.55;39.01
28628;BME280;15815;46.760;19.604;2023-04-29T07:32:47;100209.00;;;18.36;39.06
28628;BME280;15815;46.760;19.604;2023-04-29T07:35:13;100208.53;;;18.72;38.55
28628;BME280;15815;46.760;19.604;2023-04-29T07:37:39;100223.94;;;18.84;37.87
28628;BME280;15815;46.760;19.604;2023-04-29T07:40:06;100210.34;;;19.10;38.63
28628;BME280;15815;46.760;19.604;2023-04-29T07:42:32;100201.75;;;19.32;37.29
28628;BME280;15815;46.760;19.604;2023-04-29T07:44:57;100216.41;;;19.83;38.02
28628;BME280;15815;46.760;19.604;2023-04-29T07:47:23;100211.28;;;20.36;37.69
28628;BME280;15815;46.760;19.604;2023-04-29T07:49:49;100198.72;;;20.16;37.29
28628;BME280;15815;46.760;19.604;2023-04-29T07:52:15;100219.28;;;21.39;36.06
28628;BME280;15815;46.760;19.604;2023-04-29T07:54:42;100210.81;;;21.86;35.23
28628;BME280;15815;46.760;19.604;2023-04-29T07:57:08;100220.41;;;22.70;34.77
28628;BME280;15815;46.760;19.604;2023-04-29T07:59:34;100220.72;;;22.72;35.31
28628;BME280;15815;46.760;19.604;2023-04-29T08:02:02;100244.81;;;23.19;34.63
28628;BME280;15815;46.760;19.604;2023-04-29T08:07:06;100214.84;;;24.54;34.09
28628;BME280;15815;46.760;19.604;2023-04-29T08:09:31;100226.00;;;25.45;31.78
28628;BME280;15815;46.760;19.604;2023-04-29T08:11:57;100202.91;;;25.08;31.11
28628;BME280;15815;46.760;19.604;2023-04-29T08:14:22;100218.66;;;24.92;28.60
28628;BME280;15815;46.760;19.604;2023-04-29T08:16:48;100228.00;;;24.05;27.82
28628;BME280;15815;46.760;19.604;2023-04-29T08:19:14;100233.84;;;24.11;25.73
28628;BME280;15815;46.760;19.604;2023-04-29T08:21:39;100239.22;;;24.24;27.12
28628;BME280;15815;46.760;19.604;2023-04-29T08:24:05;100205.53;;;24.85;25.85
28628;BME280;15815;46.760;19.604;2023-04-29T08:26:33;100239.16;;;25.00;26.08
28628;BME280;15815;46.760;19.604;2023-04-29T08:28:59;100208.53;;;24.96;25.46
28628;BME280;15815;46.760;19.604;2023-04-29T08:31:26;100224.75;;;24.33;25.80
28628;BME280;15815;46.760;19.604;2023-04-29T08:33:51;100229.38;;;24.10;26.21
28628;BME280;15815;46.760;19.604;2023-04-29T08:36:17;100223.94;;;24.12;26.61
28628;BME280;15815;46.760;19.604;2023-04-29T08:38:42;100232.28;;;24.30;26.37
28628;BME280;15815;46.760;19.604;2023-04-29T08:41:08;100232.22;;;23.90;26.08
28628;BME280;15815;46.760;19.604;2023-04-29T08:43:35;100230.72;;;24.29;26.60
28628;BME280;15815;46.760;19.604;2023-04-29T08:46:01;100224.47;;;24.51;26.18
28628;BME280;15815;46.760;19.604;2023-04-29T08:48:28;100217.09;;;25.17;25.63
28628;BME280;15815;46.760;19.604;2023-04-29T08:50:57;100235.81;;;25.33;25.90
28628;BME280;15815;46.760;19.604;2023-04-29T08:53:26;100225.28;;;25.81;25.49
28628;BME280;15815;46.760;19.604;2023-04-29T08:55:52;100222.72;;;25.57;26.44
28628;BME280;15815;46.760;19.604;2023-04-29T08:58:20;100230.75;;;24.96;25.63
28628;BME280;15815;46.760;19.604;2023-04-29T09:00:47;100218.06;;;25.08;25.79
28628;BME280;15815;46.760;19.604;2023-04-29T09:03:28;100224.84;;;24.85;26.39
28628;BME280;15815;46.760;19.604;2023-04-29T09:05:55;100212.31;;;24.62;26.28
28628;BME280;15815;46.760;19.604;2023-04-29T09:08:23;100226.16;;;25.04;26.22
28628;BME280;15815;46.760;19.604;2023-04-29T09:10:53;100229.94;;;25.47;26.41
28628;BME280;15815;46.760;19.604;2023-04-29T09:13:25;100234.28;;;25.37;25.72
28628;BME280;15815;46.760;19.604;2023-04-29T09:15:51;100232.31;;;25.49;27.10
28628;BME280;15815;46.760;19.604;2023-04-29T09:23:43;100196.34;;;28.51;25.94
28628;BME280;15815;46.760;19.604;2023-04-29T09:26:09;100213.47;;;28.38;25.24
28628;BME280;15815;46.760;19.604;2023-04-29T09:28:35;100217.00;;;27.64;24.97
28628;BME280;15815;46.760;19.604;2023-04-29T09:31:03;100218.28;;;27.18;24.97
28628;BME280;15815;46.760;19.604;2023-04-29T09:33:29;100205.72;;;28.63;24.93
28628;BME280;15815;46.760;19.604;2023-04-29T09:35:55;100216.97;;;27.92;24.42
28628;BME280;15815;46.760;19.604;2023-04-29T09:38:20;100194.44;;;27.51;24.40
28628;BME280;15815;46.760;19.604;2023-04-29T09:40:46;100194.69;;;27.53;24.79
28628;BME280;15815;46.760;19.604;2023-04-29T09:43:16;100198.28;;;26.87;24.37
28628;BME280;15815;46.760;19.604;2023-04-29T09:45:43;100203.09;;;27.46;24.41
28628;BME280;15815;46.760;19.604;2023-04-29T09:48:10;100189.41;;;27.96;24.16
28628;BME280;15815;46.760;19.604;2023-04-29T09:50:37;100203.78;;;28.30;24.52
28628;BME280;15815;46.760;19.604;2023-04-29T09:53:04;100209.38;;;27.61;26.11
28628;BME280;15815;46.760;19.604;2023-04-29T09:55:30;100204.50;;;29.00;24.15
28628;BME280;15815;46.760;19.604;2023-04-29T09:57:56;100198.59;;;29.52;24.18
28628;BME280;15815;46.760;19.604;2023-04-29T10:00:21;100201.00;;;28.66;24.61
28628;BME280;15815;46.760;19.604;2023-04-29T10:02:48;100199.09;;;28.05;23.93
28628;BME280;15815;46.760;19.604;2023-04-29T10:05:14;100202.22;;;28.87;24.02
28628;BME280;15815;46.760;19.604;2023-04-29T10:07:41;100213.69;;;29.99;24.56
28628;BME280;15815;46.760;19.604;2023-04-29T10:10:08;100213.19;;;31.25;24.79
28628;BME280;15815;46.760;19.604;2023-04-29T10:12:34;100190.34;;;31.80;24.88
28628;BME280;15815;46.760;19.604;2023-04-29T10:15:03;100192.16;;;31.83;24.85
28628;BME280;15815;46.760;19.604;2023-04-29T10:17:32;100200.44;;;32.05;25.93
28628;BME280;15815;46.760;19.604;2023-04-29T10:20:04;100205.56;;;32.92;24.88
28628;BME280;15815;46.760;19.604;2023-04-29T10:22:46;100201.41;;;32.74;24.04
28628;BME280;15815;46.760;19.604;2023-04-29T10:25:17;100195.63;;;30.80;22.86
28628;BME280;15815;46.760;19.604;2023-04-29T10:27:44;100187.34;;;30.03;23.22
28628;BME280;15815;46.760;19.604;2023-04-29T10:30:12;100184.22;;;29.05;24.89
28628;BME280;15815;46.760;19.604;2023-04-29T10:32:39;100192.31;;;29.12;25.73
28628;BME280;15815;46.760;19.604;2023-04-29T10:35:07;100184.56;;;29.32;25.67
28628;BME280;15815;46.760;19.604;2023-04-29T10:37:33;100181.25;;;28.06;26.74
28628;BME280;15815;46.760;19.604;2023-04-29T10:43:05;100180.00;;;29.06;26.18
28628;BME280;15815;46.760;19.604;2023-04-29T10:45:27;100179.53;;;28.50;25.18
28628;BME280;15815;46.760;19.604;2023-04-29T10:52:56;100169.50;;;27.20;26.03
28628;BME280;15815;46.760;19.604;2023-04-29T10:55:22;100165.84;;;27.31;25.81
28628;BME280;15815;46.760;19.604;2023-04-29T10:57:48;100156.63;;;26.93;25.88
28628;BME280;15815;46.760;19.604;2023-04-29T11:00:34;100173.19;;;27.15;26.61
28628;BME280;15815;46.760;19.604;2023-04-29T11:03:04;100172.88;;;26.91;25.86
28628;BME280;15815;46.760;19.604;2023-04-29T11:05:36;100148.66;;;26.55;26.49
28628;BME280;15815;46.760;19.604;2023-04-29T11:10:39;100165.28;;;27.10;27.55
28628;BME280;15815;46.760;19.604;2023-04-29T11:13:26;100165.59;;;27.12;28.42
28628;BME280;15815;46.760;19.604;2023-04-29T11:15:52;100169.50;;;27.09;27.29
28628;BME280;15815;46.760;19.604;2023-04-29T11:18:18;100166.78;;;26.66;27.33
28628;BME280;15815;46.760;19.604;2023-04-29T11:23:40;100156.53;;;25.57;27.70
28628;BME280;15815;46.760;19.604;2023-04-29T11:26:06;100151.81;;;25.97;28.14
28628;BME280;15815;46.760;19.604;2023-04-29T11:28:32;100159.75;;;26.13;28.52
28628;BME280;15815;46.760;19.604;2023-04-29T11:30:58;100157.94;;;26.16;27.85
28628;BME280;15815;46.760;19.604;2023-04-29T11:33:25;100146.84;;;26.57;27.92
28628;BME280;15815;46.760;19.604;2023-04-29T11:35:51;100144.72;;;26.52;27.91
28628;BME280;15815;46.760;19.604;2023-04-29T11:38:16;100152.91;;;26.76;28.14
28628;BME280;15815;46.760;19.604;2023-04-29T11:40:51;100126.88;;;26.37;27.90
28628;BME280;15815;46.760;19.604;2023-04-29T11:43:17;100150.22;;;25.96;28.16
28628;BME280;15815;46.760;19.604;2023-04-29T11:45:46;100142.75;;;26.21;27.97
28628;BME280;15815;46.760;19.604;2023-04-29T11:48:23;100150.31;;;26.07;27.77
28628;BME280;15815;46.760;19.604;2023-04-29T11:50:51;100135.66;;;25.31;28.26
28628;BME280;15815;46.760;19.604;2023-04-29T11:53:22;100141.75;;;25.44;28.74
28628;BME280;15815;46.760;19.604;2023-04-29T11:55:48;100120.59;;;25.47;28.62
28628;BME280;15815;46.760;19.604;2023-04-29T11:58:14;100135.13;;;25.27;28.89
28628;BME280;15815;46.760;19.604;2023-04-29T12:00:40;100134.91;;;24.79;30.06
28628;BME280;15815;46.760;19.604;2023-04-29T12:03:23;100126.94;;;25.20;30.17
28628;BME280;15815;46.760;19.604;2023-04-29T12:05:55;100137.13;;;25.52;31.12
28628;BME280;15815;46.760;19.604;2023-04-29T12:08:26;100134.53;;;25.54;29.51
28628;BME280;15815;46.760;19.604;2023-04-29T12:10:56;100132.78;;;25.31;30.86
28628;BME280;15815;46.760;19.604;2023-04-29T12:13:27;100129.22;;;25.47;30.86
28628;BME280;15815;46.760;19.604;2023-04-29T12:15:55;100123.84;;;25.61;31.25
28628;BME280;15815;46.760;19.604;2023-04-29T12:18:21;100139.19;;;25.89;31.36
28628;BME280;15815;46.760;19.604;2023-04-29T12:20:47;100126.34;;;25.79;31.82
28628;BME280;15815;46.760;19.604;2023-04-29T12:23:14;100130.91;;;26.02;30.39
28628;BME280;15815;46.760;19.604;2023-04-29T12:25:40;100118.03;;;25.49;30.07
28628;BME280;15815;46.760;19.604;2023-04-29T12:28:12;100120.03;;;25.43;30.20
28628;BME280;15815;46.760;19.604;2023-04-29T12:30:38;100120.59;;;25.10;30.70
28628;BME280;15815;46.760;19.604;2023-04-29T12:33:06;100111.09;;;24.99;30.80
28628;BME280;15815;46.760;19.604;2023-04-29T12:35:33;100109.19;;;25.21;31.71
28628;BME280;15815;46.760;19.604;2023-04-29T12:37:58;100096.16;;;25.69;31.07
28628;BME280;15815;46.760;19.604;2023-04-29T12:40:24;100108.66;;;26.08;31.04
28628;BME280;15815;46.760;19.604;2023-04-29T12:42:52;100100.81;;;26.03;30.99
28628;BME280;15815;46.760;19.604;2023-04-29T12:45:31;100105.75;;;25.54;29.85
28628;BME280;15815;46.760;19.604;2023-04-29T12:47:57;100090.63;;;25.22;30.40
28628;BME280;15815;46.760;19.604;2023-04-29T12:50:34;100097.97;;;25.23;31.11
28628;BME280;15815;46.760;19.604;2023-04-29T12:53:01;100088.44;;;25.12;30.79
28628;BME280;15815;46.760;19.604;2023-04-29T12:55:27;100081.38;;;24.81;30.40
28628;BME280;15815;46.760;19.604;2023-04-29T12:57:53;100093.09;;;24.78;30.92
28628;BME280;15815;46.760;19.604;2023-04-29T13:00:18;100076.66;;;24.52;31.50
28628;BME280;15815;46.760;19.604;2023-04-29T13:02:44;100061.28;;;24.29;31.20
28628;BME280;15815;46.760;19.604;2023-04-29T13:05:09;100069.00;;;24.44;31.36
28628;BME280;15815;46.760;19.604;2023-04-29T13:07:35;100079.78;;;24.28;32.07
28628;BME280;15815;46.760;19.604;2023-04-29T13:10:01;100073.34;;;24.13;32.63
28628;BME280;15815;46.760;19.604;2023-04-29T13:12:26;100069.56;;;24.48;32.33